Time;durP1;ratioP1;P1;durP2;ratioP2;P2;SDS_P1;SDS_P2;PMS_P1;PMS_P2;Temp;Humidity;BMP_temperature;BMP_pressure;BME280_temperature;BME280_humidity;BME280_pressure;Samples;Min_cycle;Max_cycle;Signal;HPM_P1;HPM_P2
2021/07/31 00:00:58;;;;;;;12.65;9.82;;;;;;;;;;5120438;28;20088;-72
2021/07/31 00:03:25;;;;;;;9.80;8.90;;;;;;;;;;5120157;28;20425;-72
2021/07/31 00:05:51;;;;;;;10.38;9.25;;;;;;;;;;5119973;28;20471;-71
2021/07/31 00:08:17;;;;;;;10.32;9.35;;;;;;;;;;5120141;28;20148;-72
2021/07/31 00:10:43;;;;;;;14.13;9.82;;;;;;;;;;5120303;28;20119;-71
2021/07/31 00:13:09;;;;;;;14.65;9.02;;;;;;;;;;5120249;28;20023;-72
2021/07/31 00:15:35;;;;;;;10.15;9.20;;;;;;;;;;5120172;28;20023;-72
2021/07/31 00:18:01;;;;;;;10.38;9.30;;;;;;;;;;5120126;28;20038;-72
2021/07/31 00:20:27;;;;;;;12.75;9.75;;;;;;;;;;5119645;28;20020;-72
2021/07/31 00:22:53;;;;;;;12.88;9.45;;;;;;;;;;5120088;28;20027;-72
2021/07/31 00:25:19;;;;;;;18.65;9.55;;;;;;;;;;5119579;28;20080;-72
2021/07/31 00:27:45;;;;;;;10.48;9.48;;;;;;;;;;5119958;28;20035;-72
2021/07/31 00:30:11;;;;;;;11.50;10.23;;;;;;;;;;5119802;28;20019;-72
2021/07/31 00:32:37;;;;;;;11.23;10.13;;;;;;;;;;5119851;28;20366;-72
2021/07/31 00:35:03;;;;;;;10.73;9.38;;;;;;;;;;5119795;28;20023;-71
2021/07/31 00:37:29;;;;;;;11.00;9.88;;;;;;;;;;5119459;28;20035;-71
2021/07/31 00:39:55;;;;;;;14.70;10.40;;;;;;;;;;5119258;28;20118;-72
2021/07/31 00:42:21;;;;;;;12.25;11.15;;;;;;;;;;5119703;28;20047;-72
2021/07/31 00:44:47;;;;;;;14.32;10.70;;;;;;;;;;5119213;28;20483;-71
2021/07/31 00:47:14;;;;;;;11.23;10.07;;;;;;;;;;5119539;28;20027;-72
2021/07/31 00:49:40;;;;;;;13.25;10.55;;;;;;;;;;5119202;28;20026;-72
2021/07/31 00:52:07;;;;;;;13.50;10.40;;;;;;;;;;5119223;28;20472;-72
2021/07/31 00:54:33;;;;;;;10.73;9.60;;;;;;;;;;5119089;28;20030;-72
2021/07/31 00:56:59;;;;;;;12.10;9.77;;;;;;;;;;5119050;28;20396;-72
2021/07/31 00:59:26;;;;;;;11.55;10.23;;;;;;;;;;5118914;28;20028;-72
2021/07/31 01:01:52;;;;;;;10.88;9.35;;;;;;;;;;5119314;28;20023;-72
2021/07/31 01:04:18;;;;;;;11.63;9.98;;;;;;;;;;5118922;28;20034;-72
2021/07/31 01:06:44;;;;;;;12.38;9.70;;;;;;;;;;5118858;28;20453;-72
2021/07/31 01:09:10;;;;;;;14.43;10.10;;;;;;;;;;5119258;28;20031;-72
2021/07/31 01:11:37;;;;;;;11.32;10.32;;;;;;;;;;5119063;28;20081;-71
2021/07/31 01:14:03;;;;;;;11.75;9.75;;;;;;;;;;5119054;28;20027;-72
2021/07/31 01:16:29;;;;;;;10.25;8.68;;;;;;;;;;5118985;28;20024;-72
2021/07/31 01:18:55;;;;;;;11.18;9.57;;;;;;;;;;5118877;28;20030;-72
2021/07/31 01:21:30;;;;;;;10.63;9.63;;;;;;;;;;5118860;28;20023;-72
2021/07/31 01:23:56;;;;;;;11.02;9.82;;;;;;;;;;5119161;28;20028;-72
2021/07/31 01:26:22;;;;;;;11.25;10.05;;;;;;;;;;5118762;28;20050;-72
2021/07/31 01:28:48;;;;;;;10.00;8.95;;;;;;;;;;5118385;28;20020;-73
2021/07/31 01:31:14;;;;;;;10.82;9.57;;;;;;;;;;5118659;28;20111;-72
2021/07/31 01:33:40;;;;;;;11.07;10.10;;;;;;;;;;5119011;28;20049;-72
2021/07/31 01:36:06;;;;;;;13.98;10.23;;;;;;;;;;5118285;28;20031;-72
2021/07/31 01:38:32;;;;;;;13.80;10.50;;;;;;;;;;5118011;28;20123;-72
2021/07/31 01:40:58;;;;;;;11.05;10.05;;;;;;;;;;5118540;28;20028;-72
2021/07/31 01:43:24;;;;;;;11.93;10.55;;;;;;;;;;5118162;28;20016;-71
2021/07/31 01:45:50;;;;;;;11.25;9.88;;;;;;;;;;5118361;28;20039;-71
2021/07/31 01:48:16;;;;;;;11.40;9.80;;;;;;;;;;5118311;28;20357;-72
2021/07/31 01:50:44;;;;;;;11.25;10.25;;;;;;;;;;5118021;28;20057;-72
2021/07/31 01:53:10;;;;;;;10.68;9.55;;;;;;;;;;5118353;28;20061;-72
2021/07/31 01:55:36;;;;;;;9.68;8.88;;;;;;;;;;5117923;28;20063;-72
2021/07/31 01:58:03;;;;;;;11.77;9.55;;;;;;;;;;5117855;28;20026;-72
2021/07/31 02:00:28;;;;;;;10.95;9.27;;;;;;;;;;5117779;28;20031;-72
2021/07/31 02:02:54;;;;;;;12.57;9.18;;;;;;;;;;5118141;28;20030;-72
2021/07/31 02:05:20;;;;;;;10.65;9.52;;;;;;;;;;5117672;28;20045;-72
2021/07/31 02:07:46;;;;;;;9.68;8.70;;;;;;;;;;5117770;28;20030;-72
2021/07/31 02:10:13;;;;;;;12.48;9.00;;;;;;;;;;5117891;28;20110;-72
2021/07/31 02:12:39;;;;;;;10.63;9.27;;;;;;;;;;5117963;28;20285;-72
2021/07/31 02:15:05;;;;;;;10.95;9.20;;;;;;;;;;5117871;28;20034;-72
2021/07/31 02:17:32;;;;;;;10.52;9.10;;;;;;;;;;5117263;28;20119;-72
2021/07/31 02:19:58;;;;;;;10.63;9.52;;;;;;;;;;5117434;28;20027;-72
2021/07/31 02:22:24;;;;;;;10.43;9.48;;;;;;;;;;5117809;28;20136;-72
2021/07/31 02:24:50;;;;;;;10.98;9.88;;;;;;;;;;5117646;28;20331;-72
2021/07/31 02:27:16;;;;;;;10.35;9.48;;;;;;;;;;5117683;28;20071;-72
2021/07/31 02:29:42;;;;;;;12.15;10.13;;;;;;;;;;5117281;28;20023;-72
2021/07/31 02:32:09;;;;;;;10.50;9.60;;;;;;;;;;5117716;28;20012;-72
2021/07/31 02:34:35;;;;;;;10.60;9.68;;;;;;;;;;5117267;28;20031;-72
2021/07/31 02:37:01;;;;;;;13.90;10.60;;;;;;;;;;5117281;28;20419;-72
2021/07/31 02:39:27;;;;;;;15.93;10.95;;;;;;;;;;5117306;28;20054;-71
2021/07/31 02:41:53;;;;;;;13.43;10.77;;;;;;;;;;5117500;28;20030;-72
2021/07/31 02:44:19;;;;;;;13.55;10.88;;;;;;;;;;5117392;28;20031;-72
2021/07/31 02:46:45;;;;;;;11.02;9.93;;;;;;;;;;5117151;28;20429;-72
2021/07/31 02:49:11;;;;;;;13.20;11.85;;;;;;;;;;5117377;28;20020;-72
2021/07/31 02:51:37;;;;;;;12.18;10.25;;;;;;;;;;5117381;28;20049;-72
2021/07/31 02:54:03;;;;;;;11.13;10.00;;;;;;;;;;5117399;28;20035;-71
2021/07/31 02:56:29;;;;;;;17.08;10.23;;;;;;;;;;5117359;28;20035;-71
2021/07/31 02:58:55;;;;;;;14.10;10.60;;;;;;;;;;5116972;28;20415;-72
2021/07/31 03:01:21;;;;;;;13.73;10.55;;;;;;;;;;5117303;28;20031;-72
2021/07/31 03:03:47;;;;;;;11.65;10.55;;;;;;;;;;5116936;28;20034;-71
2021/07/31 03:06:13;;;;;;;12.20;10.68;;;;;;;;;;5117234;28;20111;-71
2021/07/31 03:08:39;;;;;;;11.93;10.82;;;;;;;;;;5116896;28;20327;-72
2021/07/31 03:11:07;;;;;;;11.75;10.65;;;;;;;;;;5117216;28;20033;-72
2021/07/31 03:13:33;;;;;;;10.98;9.88;;;;;;;;;;5116946;28;20042;-72
2021/07/31 03:15:59;;;;;;;12.95;10.20;;;;;;;;;;5117184;28;20115;-72
2021/07/31 03:18:25;;;;;;;12.20;10.85;;;;;;;;;;5117122;28;20047;-72
2021/07/31 03:20:53;;;;;;;12.30;11.27;;;;;;;;;;5117141;28;20053;-72
2021/07/31 03:23:20;;;;;;;12.15;10.82;;;;;;;;;;5117160;28;20032;-72
2021/07/31 03:25:46;;;;;;;11.43;10.23;;;;;;;;;;5116979;28;20051;-71
2021/07/31 03:28:12;;;;;;;11.73;10.45;;;;;;;;;;5116898;28;20412;-71
2021/07/31 03:30:40;;;;;;;11.32;10.40;;;;;;;;;;5120688;28;20106;-72
2021/07/31 03:33:06;;;;;;;12.90;10.73;;;;;;;;;;5121096;28;20103;-72
2021/07/31 03:35:32;;;;;;;15.63;10.52;;;;;;;;;;5120671;28;20467;-72
2021/07/31 03:37:58;;;;;;;11.43;10.25;;;;;;;;;;5120982;28;20122;-73
2021/07/31 03:40:23;;;;;;;13.73;10.15;;;;;;;;;;5120366;28;20330;-72
2021/07/31 03:42:49;;;;;;;11.13;10.02;;;;;;;;;;5120900;28;20028;-72
2021/07/31 03:45:16;;;;;;;11.20;9.90;;;;;;;;;;5120673;28;20032;-72
2021/07/31 03:47:42;;;;;;;14.07;10.50;;;;;;;;;;5120764;28;20024;-72
2021/07/31 03:50:08;;;;;;;11.20;10.10;;;;;;;;;;5120284;28;20359;-72
2021/07/31 03:52:34;;;;;;;11.38;10.38;;;;;;;;;;5120674;28;20110;-72
2021/07/31 03:55:00;;;;;;;13.85;11.15;;;;;;;;;;5120292;28;20027;-72
2021/07/31 03:57:28;;;;;;;15.40;11.82;;;;;;;;;;5120205;28;20034;-72
2021/07/31 03:59:54;;;;;;;15.93;11.68;;;;;;;;;;5120366;28;20024;-72
2021/07/31 04:02:20;;;;;;;14.38;12.27;;;;;;;;;;5120202;28;20036;-72
2021/07/31 04:04:46;;;;;;;11.10;10.05;;;;;;;;;;5120015;28;20422;-72
2021/07/31 04:07:12;;;;;;;13.73;10.80;;;;;;;;;;5119985;28;20046;-72
2021/07/31 04:09:38;;;;;;;15.15;10.13;;;;;;;;;;5120228;28;20353;-72
2021/07/31 04:12:04;;;;;;;11.25;10.07;;;;;;;;;;5120250;28;20032;-72
2021/07/31 04:14:31;;;;;;;13.32;11.38;;;;;;;;;;5120209;28;20031;-72
2021/07/31 04:16:57;;;;;;;11.25;10.07;;;;;;;;;;5119889;28;20396;-72
2021/07/31 04:19:23;;;;;;;11.18;9.82;;;;;;;;;;5120032;28;20031;-72
2021/07/31 04:21:59;;;;;;;10.85;9.82;;;;;;;;;;5120079;28;20060;-72
2021/07/31 04:24:25;;;;;;;11.23;10.07;;;;;;;;;;5119968;28;20030;-72
2021/07/31 04:26:51;;;;;;;13.27;10.43;;;;;;;;;;5120000;28;20075;-71
2021/07/31 04:29:17;;;;;;;13.18;9.93;;;;;;;;;;5119613;28;20016;-72
2021/07/31 04:31:43;;;;;;;11.45;10.38;;;;;;;;;;5120170;28;20051;-72
2021/07/31 04:34:10;;;;;;;11.95;9.73;;;;;;;;;;5119752;28;20035;-72
2021/07/31 04:36:36;;;;;;;11.70;10.18;;;;;;;;;;5119795;28;20032;-72
2021/07/31 04:39:02;;;;;;;12.13;10.88;;;;;;;;;;5119045;28;20043;-72
2021/07/31 04:41:28;;;;;;;10.85;9.88;;;;;;;;;;5119600;28;20362;-71
2021/07/31 04:43:54;;;;;;;11.75;10.52;;;;;;;;;;5119315;28;20037;-72
2021/07/31 04:46:20;;;;;;;11.20;9.75;;;;;;;;;;5119597;28;20037;-72
2021/07/31 04:48:46;;;;;;;10.95;9.73;;;;;;;;;;5119480;28;20065;-72
2021/07/31 04:51:13;;;;;;;11.90;10.15;;;;;;;;;;5119461;28;20110;-72
2021/07/31 04:53:39;;;;;;;10.52;9.05;;;;;;;;;;5119195;28;20019;-72
2021/07/31 04:56:05;;;;;;;10.60;9.70;;;;;;;;;;5119404;28;20051;-72
2021/07/31 04:58:31;;;;;;;11.63;10.43;;;;;;;;;;5119281;28;20028;-71
2021/07/31 05:01:01;;;;;;;11.07;10.18;;;;;;;;;;5119313;28;20034;-71
2021/07/31 05:03:30;;;;;;;12.30;11.10;;;;;;;;;;5119338;28;20300;-72
2021/07/31 05:05:56;;;;;;;12.35;11.13;;;;;;;;;;5119137;28;20028;-72
2021/07/31 05:08:22;;;;;;;68.93;13.98;;;;;;;;;;5119255;28;20035;-72
2021/07/31 05:10:49;;;;;;;18.13;12.05;;;;;;;;;;5119137;28;20030;-71
2021/07/31 05:13:15;;;;;;;19.73;11.00;;;;;;;;;;5119127;28;20023;-71
2021/07/31 05:15:42;;;;;;;25.30;13.68;;;;;;;;;;5119021;28;20020;-72
2021/07/31 05:18:09;;;;;;;15.52;13.73;;;;;;;;;;5118652;28;20039;-71
2021/07/31 05:20:38;;;;;;;68.03;16.00;;;;;;;;;;5118846;28;20372;-70
2021/07/31 05:23:04;;;;;;;11.18;9.98;;;;;;;;;;5118630;28;20078;-71
2021/07/31 05:25:30;;;;;;;11.68;10.70;;;;;;;;;;5118452;28;20072;-71
2021/07/31 05:27:56;;;;;;;10.50;9.60;;;;;;;;;;5118827;28;20023;-71
2021/07/31 05:30:22;;;;;;;12.10;10.90;;;;;;;;;;5118374;28;20201;-71
2021/07/31 05:32:48;;;;;;;11.35;10.45;;;;;;;;;;5118778;28;20031;-71
2021/07/31 05:35:15;;;;;;;14.57;13.27;;;;;;;;;;5118665;28;20043;-72
2021/07/31 05:37:41;;;;;;;14.93;13.63;;;;;;;;;;5118460;28;20031;-71
2021/07/31 05:40:07;;;;;;;14.18;12.80;;;;;;;;;;5118117;28;20122;-71
2021/07/31 05:42:33;;;;;;;14.07;12.80;;;;;;;;;;5118244;28;20441;-71
2021/07/31 05:45:00;;;;;;;14.00;12.70;;;;;;;;;;5118399;28;20040;-71
2021/07/31 05:47:27;;;;;;;12.55;11.35;;;;;;;;;;5118415;28;20099;-72
2021/07/31 05:50:48;;;;;;;16.60;11.68;;;;;;;;;;5114995;27;20364;-72
2021/07/31 05:53:14;;;;;;;13.50;12.20;;;;;;;;;;5114642;28;20034;-71
2021/07/31 05:55:40;;;;;;;15.02;13.18;;;;;;;;;;5114872;28;20023;-71
2021/07/31 05:58:06;;;;;;;14.05;12.73;;;;;;;;;;5114547;28;20334;-72
2021/07/31 06:00:32;;;;;;;13.68;12.57;;;;;;;;;;5114709;28;20115;-72
2021/07/31 06:02:58;;;;;;;13.55;12.43;;;;;;;;;;5114779;28;20185;-71
2021/07/31 06:05:24;;;;;;;13.80;12.50;;;;;;;;;;5114370;28;20468;-72
2021/07/31 06:07:50;;;;;;;15.13;13.82;;;;;;;;;;5114353;28;20095;-72
2021/07/31 06:10:16;;;;;;;14.32;13.13;;;;;;;;;;5114431;28;20119;-72
2021/07/31 06:12:42;;;;;;;14.32;12.98;;;;;;;;;;5114274;28;20030;-72
2021/07/31 06:15:08;;;;;;;13.73;12.63;;;;;;;;;;5114480;28;20028;-72
2021/07/31 06:17:34;;;;;;;13.43;12.40;;;;;;;;;;5114448;28;20019;-72
2021/07/31 06:20:00;;;;;;;14.25;13.05;;;;;;;;;;5114032;28;20323;-72
2021/07/31 06:22:26;;;;;;;13.18;11.98;;;;;;;;;;5114229;28;20030;-72
2021/07/31 06:24:52;;;;;;;13.02;11.93;;;;;;;;;;5114288;28;20027;-72
2021/07/31 06:27:18;;;;;;;14.60;13.05;;;;;;;;;;5113917;28;20428;-72
2021/07/31 06:29:44;;;;;;;14.20;12.70;;;;;;;;;;5114056;28;20379;-72
2021/07/31 06:32:10;;;;;;;13.38;12.07;;;;;;;;;;5114252;28;20103;-72
2021/07/31 06:34:36;;;;;;;12.55;11.55;;;;;;;;;;5113827;28;20069;-72
2021/07/31 06:37:02;;;;;;;12.57;11.32;;;;;;;;;;5114088;28;20016;-72
2021/07/31 06:39:29;;;;;;;13.02;11.73;;;;;;;;;;5113690;28;20059;-72
2021/07/31 06:41:55;;;;;;;11.93;11.00;;;;;;;;;;5113989;28;20046;-71
2021/07/31 06:44:21;;;;;;;12.95;11.73;;;;;;;;;;5113651;28;20110;-72
2021/07/31 06:46:47;;;;;;;13.05;11.85;;;;;;;;;;5113908;28;20032;-72
2021/07/31 06:49:13;;;;;;;12.35;11.15;;;;;;;;;;5113355;28;20413;-72
2021/07/31 06:51:39;;;;;;;10.35;9.32;;;;;;;;;;5113767;28;20024;-72
2021/07/31 06:54:05;;;;;;;11.05;10.07;;;;;;;;;;5113765;28;20024;-71
2021/07/31 06:56:35;;;;;;;10.18;9.27;;;;;;;;;;5113391;28;20027;-71
2021/07/31 06:59:01;;;;;;;9.38;8.48;;;;;;;;;;5113570;28;20034;-72
2021/07/31 07:01:27;;;;;;;9.25;8.55;;;;;;;;;;5103528;28;20036;-71
2021/07/31 07:03:53;;;;;;;10.27;9.48;;;;;;;;;;5099731;28;20024;-71
2021/07/31 07:06:20;;;;;;;9.60;8.30;;;;;;;;;;5099921;28;20028;-71
2021/07/31 07:08:46;;;;;;;9.77;8.73;;;;;;;;;;5099458;28;20032;-71
2021/07/31 07:11:13;;;;;;;9.75;8.95;;;;;;;;;;5099812;28;20069;-71
2021/07/31 07:13:39;;;;;;;10.30;9.10;;;;;;;;;;5099822;28;20058;-71
2021/07/31 07:16:05;;;;;;;9.65;8.90;;;;;;;;;;5099421;28;20031;-71
2021/07/31 07:18:31;;;;;;;10.27;8.63;;;;;;;;;;5099257;28;20048;-71
2021/07/31 07:20:57;;;;;;;9.90;8.40;;;;;;;;;;5099677;28;20020;-71
2021/07/31 07:23:23;;;;;;;9.00;8.10;;;;;;;;;;5099396;28;20073;-72
2021/07/31 07:25:49;;;;;;;9.02;8.15;;;;;;;;;;5099570;28;20024;-72
2021/07/31 07:28:15;;;;;;;8.75;8.02;;;;;;;;;;5099157;28;20396;-71
2021/07/31 07:30:43;;;;;;;8.57;7.65;;;;;;;;;;5099378;28;20024;-71
2021/07/31 07:33:09;;;;;;;8.80;8.00;;;;;;;;;;5099468;28;20099;-72
2021/07/31 07:35:35;;;;;;;8.55;7.65;;;;;;;;;;5099377;28;20067;-71
2021/07/31 07:38:01;;;;;;;7.75;7.15;;;;;;;;;;5099329;28;20020;-71
2021/07/31 07:40:27;;;;;;;7.72;6.95;;;;;;;;;;5099183;28;20030;-72
2021/07/31 07:42:53;;;;;;;8.50;6.88;;;29.30;74.60;;;;;;5099014;28;20398;-70
2021/07/31 07:45:19;;;;;;;8.75;6.32;;;29.50;75.00;;;;;;5098875;28;20030;-71
2021/07/31 07:47:45;;;;;;;6.43;5.93;;;;;;;;;;5099167;28;20115;-71
2021/07/31 07:50:11;;;;;;;7.10;6.40;;;;;;;;;;5098511;28;20131;-71
2021/07/31 07:52:37;;;;;;;7.00;6.40;;;;;;;;;;5098773;28;20424;-71
2021/07/31 07:55:03;;;;;;;7.13;6.45;;;28.90;73.80;;;;;;5098979;28;20055;-71
2021/07/31 07:57:29;;;;;;;7.18;6.57;;;28.60;71.20;;;;;;5098622;28;20110;-71
2021/07/31 07:59:55;;;;;;;6.78;6.28;;;28.60;72.00;;;;;;5098818;28;20072;-70
2021/07/31 08:02:20;;;;;;;7.18;6.47;;;28.50;76.90;;;;;;5098608;28;20324;-71
2021/07/31 08:04:46;;;;;;;7.75;7.07;;;;;;;;;;5098478;28;20047;-71
2021/07/31 08:07:13;;;;;;;7.07;6.45;;;;;;;;;;5098779;28;20020;-71
2021/07/31 08:09:39;;;;;;;7.82;6.90;;;28.30;74.60;;;;;;5098526;28;20024;-71
2021/07/31 08:12:06;;;;;;;7.80;6.68;;;28.50;75.20;;;;;;5097889;28;20020;-70
2021/07/31 08:14:33;;;;;;;7.28;6.53;;;29.10;69.50;;;;;;5098671;28;20024;-71
2021/07/31 08:16:59;;;;;;;10.35;6.97;;;;;;;;;;5098251;28;20035;-71
2021/07/31 08:19:24;;;;;;;6.90;6.22;;;30.20;66.30;;;;;;5098518;28;20032;-71
2021/07/31 08:21:50;;;;;;;6.72;6.13;;;30.40;66.10;;;;;;5098526;28;20439;-71
2021/07/31 08:24:19;;;;;;;7.03;6.35;;;30.90;69.00;;;;;;5098409;28;20024;-70
2021/07/31 08:26:45;;;;;;;7.78;5.93;;;30.90;64.10;;;;;;5098378;28;20115;-71
2021/07/31 08:29:11;;;;;;;5.88;5.38;;;31.10;65.40;;;;;;5097865;28;20024;-71
2021/07/31 08:31:43;;;;;;;6.22;5.43;;;31.60;69.70;;;;;;5098294;28;20027;-71
2021/07/31 08:34:10;;;;;;;6.28;5.65;;;31.80;68.80;;;;;;5098256;28;20032;-71
2021/07/31 08:36:36;;;;;;;6.35;5.78;;;31.90;66.90;;;;;;5098188;28;20027;-70
2021/07/31 08:39:02;;;;;;;6.47;5.80;;;31.90;63.80;;;;;;5097787;28;20412;-70
2021/07/31 08:41:29;;;;;;;6.55;5.20;;;;;;;;;;5098105;28;20360;-70
2021/07/31 08:43:57;;;;;;;6.32;5.72;;;31.90;65.40;;;;;;5097812;28;20428;-71
2021/07/31 08:46:23;;;;;;;8.00;5.82;;;31.70;62.90;;;;;;5097690;28;20119;-71
2021/07/31 08:48:50;;;;;;;5.93;5.40;;;31.70;66.00;;;;;;5097517;28;20127;-71
2021/07/31 08:51:16;;;;;;;5.93;5.43;;;31.40;63.70;;;;;;5097899;28;20070;-70
2021/07/31 08:53:43;;;;;;;7.63;5.40;;;31.50;64.40;;;;;;5097907;28;20043;-71
2021/07/31 08:56:09;;;;;;;6.32;5.75;;;31.50;64.00;;;;;;5097536;28;20077;-71
2021/07/31 08:58:42;;;;;;;6.07;5.55;;;31.90;66.00;;;;;;5097399;28;20530;-71
2021/07/31 09:01:08;;;;;;;5.72;5.10;;;32.20;64.20;;;;;;5097414;28;20082;-71
2021/07/31 09:03:48;;;;;;;6.03;5.43;;;32.20;62.90;;;;;;5097738;28;20028;-71
2021/07/31 09:06:33;;;;;;;5.78;5.28;;;32.30;63.70;;;;;;5097700;28;20373;-71
2021/07/31 09:09:00;;;;;;;6.05;5.28;;;32.50;63.10;;;;;;5097101;28;20044;-70
2021/07/31 09:11:26;;;;;;;8.13;5.05;;;32.80;65.60;;;;;;5097577;28;20048;-71
2021/07/31 09:14:09;;;;;;;6.43;5.60;;;32.80;59.90;;;;;;5097261;28;20019;-71
2021/07/31 09:16:35;;;;;;;5.28;4.82;;;32.60;62.80;;;;;;5097183;28;20028;-71
2021/07/31 09:19:06;;;;;;;5.55;5.05;;;32.70;62.70;;;;;;5097018;28;20078;-71
2021/07/31 09:21:31;;;;;;;5.90;5.10;;;32.70;62.30;;;;;;5097109;28;20024;-71
2021/07/31 09:23:57;;;;;;;5.65;4.78;;;33.10;63.20;;;;;;5096890;28;20107;-71
2021/07/31 09:26:36;;;;;;;6.97;5.20;;;;;;;;;;5097369;28;20066;-71
2021/07/31 09:29:09;;;;;;;5.78;5.15;;;32.70;63.40;;;;;;5096913;28;20020;-71
2021/07/31 09:31:39;;;;;;;6.75;5.85;;;33.10;62.60;;;;;;5097001;28;20424;-71
2021/07/31 09:34:06;;;;;;;5.75;5.03;;;33.10;61.00;;;;;;5096961;28;20102;-71
2021/07/31 09:36:37;;;;;;;5.80;4.90;;;33.20;58.40;;;;;;5096942;28;20032;-71
2021/07/31 09:39:07;;;;;;;5.80;5.03;;;33.30;57.50;;;;;;5097133;28;20016;-71
2021/07/31 09:41:38;;;;;;;5.25;4.82;;;33.40;61.30;;;;;;5097144;28;20025;-71
2021/07/31 09:44:06;;;;;;;6.70;5.40;;;33.50;64.30;;;;;;5097196;28;20107;-71
2021/07/31 09:46:54;;;;;;;5.53;5.03;;;33.60;60.30;;;;;;5097126;28;20023;-71
2021/07/31 09:49:21;;;;;;;5.32;4.85;;;33.80;62.70;;;;;;5096552;28;20076;-71
2021/07/31 09:51:49;;;;;;;6.18;5.10;;;33.80;56.50;;;;;;5097073;28;20155;-71
2021/07/31 09:54:17;;;;;;;5.90;5.30;;;33.50;62.30;;;;;;5097044;28;20025;-71
2021/07/31 09:56:48;;;;;;;8.35;5.32;;;33.40;60.80;;;;;;5096979;28;20341;-71
2021/07/31 09:59:18;;;;;;;9.10;5.43;;;33.20;61.90;;;;;;5096980;28;20031;-71
2021/07/31 10:02:04;;;;;;;7.68;5.22;;;33.20;61.90;;;;;;5096697;28;20039;-71
2021/07/31 10:04:33;;;;;;;6.13;5.30;;;33.20;63.20;;;;;;5096298;28;20036;-70
2021/07/31 10:07:02;;;;;;;6.18;5.20;;;33.40;64.20;;;;;;5096592;28;20020;-71
2021/07/31 10:09:29;;;;;;;6.32;5.00;;;33.70;63.70;;;;;;5096752;28;20024;-71
2021/07/31 10:11:56;;;;;;;5.70;5.20;;;33.90;60.90;;;;;;5097412;28;20285;-72
2021/07/31 10:14:23;;;;;;;5.63;5.13;;;33.70;60.00;;;;;;5096548;28;20016;-71
2021/07/31 10:16:49;;;;;;;5.95;5.35;;;33.70;61.50;;;;;;5096522;28;20028;-71
2021/07/31 10:19:15;;;;;;;6.70;5.32;;;33.60;59.90;;;;;;5089319;28;20032;-72
2021/07/31 10:21:58;;;;;;;6.75;5.07;;;33.60;64.50;;;;;;5087573;28;20048;-70
2021/07/31 10:24:24;;;;;;;7.72;5.20;;;34.00;62.30;;;;;;5076576;28;20158;-71
2021/07/31 10:27:14;;;;;;;6.53;5.40;;;34.00;64.00;;;;;;5076505;28;20029;-71
2021/07/31 10:29:47;;;;;;;6.78;5.40;;;34.20;63.10;;;;;;5076535;28;20033;-72
2021/07/31 10:32:22;;;;;;;6.38;5.30;;;34.10;62.40;;;;;;5076237;28;20031;-72
2021/07/31 10:34:59;;;;;;;6.85;5.18;;;34.20;62.40;;;;;;5076429;28;20033;-70
2021/07/31 10:37:38;;;;;;;6.05;5.47;;;34.20;60.00;;;;;;5079871;28;20043;-72
2021/07/31 10:40:04;;;;;;;8.68;5.60;;;;;;;;;;5080103;28;20119;-70
2021/07/31 10:42:52;;;;;;;5.75;5.20;;;34.20;60.50;;;;;;5079831;28;20439;-72
2021/07/31 10:45:31;;;;;;;5.70;5.30;;;34.40;61.70;;;;;;5080042;28;20028;-72
2021/07/31 10:48:01;;;;;;;6.30;5.50;;;34.20;64.40;;;;;;5080051;28;20024;-72
2021/07/31 10:50:29;;;;;;;5.97;5.40;;;;;;;;;;5079351;28;20356;-71
2021/07/31 10:53:11;;;;;;;6.65;5.43;;;34.10;60.50;;;;;;5079660;28;20025;-70
2021/07/31 10:55:37;;;;;;;7.38;5.47;;;33.90;58.70;;;;;;5079563;28;20020;-70
2021/07/31 10:58:12;;;;;;;7.38;5.30;;;33.90;60.80;;;;;;5079524;28;20033;-71
2021/07/31 11:00:38;;;;;;;7.05;5.78;;;33.80;60.60;;;;;;5079473;28;20032;-71
2021/07/31 11:03:25;;;;;;;6.40;5.40;;;34.00;62.10;;;;;;5079785;28;20028;-72
2021/07/31 11:06:03;;;;;;;7.68;5.97;;;33.40;59.20;;;;;;5079401;28;20032;-71
2021/07/31 11:08:31;;;;;;;11.30;6.20;;;33.60;59.90;;;;;;5079241;28;20439;-71
2021/07/31 11:10:57;;;;;;;9.02;5.97;;;;;;;;;;5079619;28;20356;-71
2021/07/31 11:13:23;;;;;;;6.50;5.90;;;33.20;64.80;;;;;;5079641;28;20048;-71
2021/07/31 11:16:04;;;;;;;8.50;5.85;;;33.00;63.10;;;;;;5079167;28;20024;-71
2021/07/31 11:18:35;;;;;;;7.28;5.97;;;33.20;60.80;;;;;;5079111;28;20032;-71
2021/07/31 11:21:27;;;;;;;6.72;5.97;;;33.40;61.90;;;;;;5079397;28;20082;-71
2021/07/31 11:24:09;;;;;;;8.85;6.97;;;33.50;59.90;;;;;;5076227;28;20032;-71
2021/07/31 11:26:54;;;;;;;9.57;6.60;;;33.40;60.50;;;;;;5079413;28;20041;-71
2021/07/31 11:29:21;;;;;;;;;;;32.60;60.30;;;;;;5079306;28;20032;-71
2021/07/31 11:32:03;;;;;;;7.22;6.53;;;32.40;62.80;;;;;;5079238;28;19904;-71
2021/07/31 11:34:46;;;;;;;8.45;7.10;;;32.50;61.60;;;;;;5078879;28;20487;-71
2021/07/31 11:37:13;;;;;;;8.35;6.32;;;32.60;66.80;;;;;;5079150;28;20040;-72
2021/07/31 11:39:39;;;;;;;8.07;6.80;;;32.30;62.10;;;;;;5078988;28;20024;-72
2021/07/31 11:42:06;;;;;;;10.20;6.80;;;32.30;65.40;;;;;;5078807;28;20486;-70
2021/07/31 11:44:34;;;;;;;8.82;7.80;;;32.10;64.60;;;;;;5078672;28;20420;-71
2021/07/31 11:47:01;;;;;;;7.28;6.57;;;32.00;64.70;;;;;;5078821;28;20070;-71
2021/07/31 11:49:29;;;;;;;9.48;7.93;;;31.40;64.70;;;;;;5078318;28;20084;-72
2021/07/31 11:51:59;;;;;;;9.95;7.78;;;31.20;66.20;;;;;;5078866;28;20032;-71
2021/07/31 11:54:26;;;;;;;8.75;7.90;;;;;;;;;;5078427;28;20017;-71
2021/07/31 11:56:52;;;;;;;9.43;7.90;;;30.60;67.60;;;;;;5078727;28;20029;-71
2021/07/31 11:59:32;;;;;;;9.57;8.60;;;30.60;66.50;;;;;;5078599;28;20028;-72
2021/07/31 12:01:58;;;;;;;9.57;7.53;;;30.60;69.90;;;;;;5078364;28;20420;-71
2021/07/31 12:04:42;;;;;;;7.88;6.45;;;30.50;71.20;;;;;;5078578;28;20407;-71
2021/07/31 12:07:13;;;;;;;10.32;7.22;;;30.40;73.40;;;;;;5078799;28;20086;-71
2021/07/31 12:09:40;;;;;;;7.93;7.22;;;30.30;71.60;;;;;;5077992;28;20081;-71
2021/07/31 12:12:26;;;;;;;9.40;7.93;;;30.50;69.90;;;;;;5078468;28;20036;-71
2021/07/31 12:15:17;;;;;;;9.70;7.65;;;30.90;69.70;;;;;;5078393;28;20416;-71
2021/07/31 12:17:56;;;;;;;7.88;7.07;;;31.20;69.20;;;;;;5070587;28;20032;-71
2021/07/31 12:20:34;;;;;;;9.25;8.27;;;31.30;66.50;;;;;;5078358;28;20357;-71
2021/07/31 12:23:02;;;;;;;7.43;6.82;;;31.30;71.80;;;;;;5077945;28;20119;-71
2021/07/31 12:25:29;;;;;;;7.57;6.88;;;31.40;68.70;;;;;;5077823;28;20033;-72
2021/07/31 12:28:13;;;;;;;9.10;6.80;;;31.30;70.20;;;;;;5078118;28;20117;-71
2021/07/31 12:30:42;;;;;;;9.43;7.93;;;;;;;;;;5078007;28;20028;-72
2021/07/31 12:33:08;;;;;;;7.85;7.07;;;;;;;;;;5078058;28;20028;-72
2021/07/31 12:35:44;;;;;;;9.50;8.25;;;29.10;68.10;;;;;;5077814;28;20051;-71
2021/07/31 12:38:23;;;;;;;10.50;7.78;;;;;;;;;;5077807;28;20115;-71
2021/07/31 12:40:56;;;;;;;12.25;7.85;;;29.00;73.30;;;;;;5077855;28;20333;-71
2021/07/31 12:43:24;;;;;;;11.02;7.35;;;29.40;75.40;;;;;;5077820;28;20039;-71
2021/07/31 12:45:52;;;;;;;8.70;7.80;;;29.50;70.00;;;;;;5077443;28;20297;-72
2021/07/31 12:48:18;;;;;;;8.43;7.18;;;30.00;74.40;;;;;;5077528;28;20029;-71
2021/07/31 12:50:45;;;;;;;9.90;6.97;;;30.20;70.30;;;;;;5077101;28;20413;-71
2021/07/31 12:53:13;;;;;;;9.68;7.30;;;;;;;;;;5077653;28;20331;-72
2021/07/31 12:55:39;;;;;;;7.53;6.75;;;30.30;71.40;;;;;;5077617;28;20031;-72
2021/07/31 12:58:05;;;;;;;7.85;7.22;;;30.20;68.60;;;;;;5077212;28;20025;-71
2021/07/31 13:00:31;;;;;;;7.78;7.15;;;29.80;72.20;;;;;;5076988;28;20050;-71
2021/07/31 13:02:58;;;;;;;9.30;7.05;;;29.80;71.80;;;;;;5077524;28;20028;-72
2021/07/31 13:05:25;;;;;;;8.40;6.95;;;29.50;69.90;;;;;;5077149;28;20415;-70
2021/07/31 13:07:52;;;;;;;9.35;6.95;;;;;;;;;;5077111;28;20043;-71
2021/07/31 13:10:19;;;;;;;8.40;7.20;;;29.10;73.60;;;;;;5077192;28;20055;-71
2021/07/31 13:12:45;;;;;;;11.95;7.25;;;;;;;;;;5077373;28;20035;-71
2021/07/31 13:15:11;;;;;;;10.57;7.40;;;28.60;72.90;;;;;;5076977;28;20046;-71
2021/07/31 13:17:37;;;;;;;8.90;7.95;;;28.20;71.30;;;;;;5076938;28;20028;-71
2021/07/31 13:20:03;;;;;;;8.10;7.35;;;28.00;76.40;;;;;;5077278;28;20032;-71
2021/07/31 13:22:29;;;;;;;8.02;7.28;;;;;;;;;;5076937;28;20033;-71
2021/07/31 13:24:57;;;;;;;8.63;7.57;;;;;;;;;;5077139;28;20082;-71
2021/07/31 13:27:23;;;;;;;9.05;8.15;;;;;;;;;;5077164;28;20371;-71
2021/07/31 13:29:49;;;;;;;10.77;7.63;;;;;;;;;;5076980;28;20024;-71
2021/07/31 13:32:16;;;;;;;8.38;7.68;;;;;;;;;;5077120;28;20025;-71
2021/07/31 13:34:42;;;;;;;9.68;8.68;;;;;;;;;;5077046;28;20029;-71
2021/07/31 13:37:14;;;;;;;8.82;7.95;;;;;;;;;;5076685;28;20487;-71
2021/07/31 13:39:44;;;;;;;9.18;8.18;;;;;;;;;;5076948;28;20289;-71
2021/07/31 13:42:10;;;;;;;9.43;8.48;;;;;;;;;;5076703;28;20460;-72
2021/07/31 13:44:37;;;;;;;9.15;8.32;;;;;;;;;;5076620;28;20024;-71
2021/07/31 13:47:03;;;;;;;10.98;8.80;;;;;;;;;;5076919;28;20094;-71
2021/07/31 13:49:29;;;;;;;10.30;8.63;;;;;;;;;;5076340;28;20048;-71
2021/07/31 13:51:55;;;;;;;11.90;8.57;;;;;;;;;;5076577;28;20419;-72
2021/07/31 13:54:21;;;;;;;11.55;8.10;;;;;;;;;;5076504;28;20020;-71